createdAt,value
2017-07-22T00:00:47.653Z,25.67
2017-07-22T00:03:15.182Z,25.66
2017-07-22T00:05:42.834Z,25.68
2017-07-22T00:08:10.343Z,25.68
2017-07-22T00:10:37.900Z,25.67
2017-07-22T00:13:05.417Z,25.66
2017-07-22T00:15:32.968Z,25.66
2017-07-22T00:18:00.481Z,25.61
2017-07-22T00:20:28.090Z,25.56
2017-07-22T00:22:55.767Z,25.58
2017-07-22T00:25:23.312Z,25.52
2017-07-22T00:27:50.839Z,25.56
2017-07-22T00:30:18.434Z,25.54
2017-07-22T00:32:45.950Z,25.54
2017-07-22T00:35:13.504Z,25.51
2017-07-22T00:37:41.039Z,25.53
2017-07-22T00:40:08.672Z,25.50
2017-07-22T00:42:36.188Z,25.49
2017-07-22T00:45:03.697Z,25.46
2017-07-22T00:47:31.305Z,25.36
2017-07-22T00:49:58.823Z,25.26
2017-07-22T00:52:26.361Z,25.17
2017-07-22T00:54:53.872Z,25.11
2017-07-22T00:57:21.488Z,25.09
2017-07-22T00:59:49.002Z,25.08
2017-07-22T01:02:16.555Z,25.08
2017-07-22T01:04:44.073Z,25.13
2017-07-22T01:07:11.619Z,25.11
2017-07-22T01:09:39.142Z,25.13
2017-07-22T01:12:06.694Z,25.08
2017-07-22T01:14:34.209Z,25.07
2017-07-22T01:17:01.755Z,25.03
2017-07-22T01:19:29.291Z,25.01
2017-07-22T01:21:56.843Z,24.98
2017-07-22T01:24:24.354Z,24.93
2017-07-22T01:26:51.900Z,24.88
2017-07-22T01:29:19.417Z,24.92
2017-07-22T01:31:46.987Z,24.68
2017-07-22T01:34:14.505Z,24.67
2017-07-22T01:36:42.032Z,24.68
2017-07-22T01:39:09.586Z,24.62
2017-07-22T01:41:37.115Z,24.62
2017-07-22T01:44:04.664Z,24.59
2017-07-22T01:46:32.181Z,24.60
2017-07-22T01:48:59.734Z,24.66
2017-07-22T01:51:27.273Z,24.70
2017-07-22T01:53:54.821Z,24.70
2017-07-22T01:56:22.371Z,24.71
2017-07-22T01:58:49.918Z,24.67
2017-07-22T02:01:17.434Z,24.74
2017-07-22T02:03:45.003Z,24.75
2017-07-22T02:06:12.534Z,24.84
2017-07-22T02:08:40.106Z,24.79
2017-07-22T02:11:07.624Z,24.74
2017-07-22T02:13:35.169Z,24.72
2017-07-22T02:16:02.681Z,24.78
2017-07-22T02:18:30.223Z,24.80
2017-07-22T02:20:57.741Z,24.72
2017-07-22T02:23:25.283Z,24.68
2017-07-22T02:25:52.850Z,24.67
2017-07-22T02:28:20.377Z,24.66
2017-07-22T02:30:47.937Z,24.70
2017-07-22T02:33:15.453Z,24.68
2017-07-22T02:35:42.989Z,24.74
2017-07-22T02:38:10.500Z,24.77
2017-07-22T02:40:38.048Z,24.80
2017-07-22T02:43:05.573Z,24.75
2017-07-22T02:45:33.117Z,24.70
2017-07-22T02:48:00.629Z,24.66
2017-07-22T02:50:28.180Z,24.65
2017-07-22T02:52:55.697Z,24.64
2017-07-22T02:55:23.355Z,24.61
2017-07-22T02:57:50.871Z,24.63
2017-07-22T03:00:18.413Z,24.68
2017-07-22T03:02:45.930Z,24.76
2017-07-22T03:05:13.477Z,24.77
2017-07-22T03:07:41.052Z,24.64
2017-07-22T03:10:08.605Z,24.64
2017-07-22T03:12:36.131Z,24.78
2017-07-22T03:15:03.655Z,24.84
2017-07-22T03:17:31.202Z,24.85
2017-07-22T03:19:58.727Z,24.85
2017-07-22T03:22:26.284Z,24.85
2017-07-22T03:24:53.825Z,24.81
2017-07-22T03:27:21.398Z,24.80
2017-07-22T03:29:48.905Z,24.78
2017-07-22T03:32:16.510Z,24.84
2017-07-22T03:34:44.030Z,24.88
2017-07-22T03:37:11.572Z,24.92
2017-07-22T03:39:39.098Z,24.88
2017-07-22T03:42:06.657Z,24.86
2017-07-22T03:44:34.176Z,24.87
2017-07-22T03:47:01.762Z,24.83
2017-07-22T03:49:29.281Z,24.86
2017-07-22T03:51:56.834Z,24.81
2017-07-22T03:54:24.351Z,24.87
2017-07-22T03:56:51.911Z,24.90
2017-07-22T03:59:19.421Z,24.83
2017-07-22T04:01:46.993Z,24.85
2017-07-22T04:04:14.513Z,24.86
2017-07-22T04:06:42.030Z,24.85
2017-07-22T04:09:09.589Z,24.82
2017-07-22T04:11:37.114Z,24.80
2017-07-22T04:14:04.669Z,24.87
2017-07-22T04:16:32.187Z,24.89
2017-07-22T04:18:59.735Z,24.90
2017-07-22T04:21:27.270Z,24.92
2017-07-22T04:23:54.817Z,24.90
2017-07-22T04:26:22.367Z,24.92
2017-07-22T04:28:49.921Z,24.93
2017-07-22T04:31:17.439Z,24.95
2017-07-22T04:33:44.987Z,24.95
2017-07-22T04:36:12.505Z,24.95
2017-07-22T04:38:40.142Z,24.95
2017-07-22T04:41:07.670Z,24.95
2017-07-22T04:43:35.225Z,24.95
2017-07-22T04:46:02.753Z,24.94
2017-07-22T04:48:30.381Z,24.96
2017-07-22T04:50:57.898Z,24.96
2017-07-22T04:53:25.460Z,24.95
2017-07-22T04:55:52.987Z,24.97
2017-07-22T04:58:20.517Z,24.98
2017-07-22T05:00:48.180Z,24.98
2017-07-22T05:03:15.718Z,24.96
2017-07-22T05:05:43.289Z,24.97
2017-07-22T05:08:10.805Z,24.97
2017-07-22T05:10:38.352Z,24.98
2017-07-22T05:13:05.938Z,24.98
2017-07-22T05:15:33.485Z,24.97
2017-07-22T05:18:01.006Z,24.97
2017-07-22T05:20:28.623Z,24.98
2017-07-22T05:22:56.270Z,24.97
2017-07-22T05:25:23.822Z,24.98
2017-07-22T05:27:51.352Z,24.99
2017-07-22T05:30:18.898Z,24.98
2017-07-22T05:32:46.418Z,24.98
2017-07-22T05:35:13.963Z,25.01
2017-07-22T05:37:41.504Z,25.00
2017-07-22T05:40:09.073Z,24.99
2017-07-22T05:42:36.598Z,25.00
2017-07-22T05:45:04.276Z,24.98
2017-07-22T05:47:31.787Z,25.01
2017-07-22T05:49:59.304Z,25.00
2017-07-22T05:52:26.862Z,25.01
2017-07-22T05:54:54.390Z,25.02
2017-07-22T05:57:21.959Z,25.03
2017-07-22T05:59:49.476Z,25.03
2017-07-22T06:02:17.030Z,25.04
2017-07-22T06:04:44.549Z,25.04
2017-07-22T06:07:12.108Z,25.03
2017-07-22T06:09:39.686Z,25.03
2017-07-22T06:12:07.234Z,25.03
2017-07-22T06:14:34.757Z,25.00
2017-07-22T06:17:02.302Z,24.99
2017-07-22T06:19:29.824Z,25.01
2017-07-22T06:21:57.370Z,24.98
2017-07-22T06:24:24.884Z,25.01
2017-07-22T06:26:52.580Z,25.02
2017-07-22T06:29:20.143Z,25.02
2017-07-22T06:31:47.702Z,25.04
2017-07-22T06:34:15.233Z,25.05
2017-07-22T06:36:42.753Z,25.08
2017-07-22T06:39:10.321Z,25.07
2017-07-22T06:41:37.843Z,25.08
2017-07-22T06:44:05.399Z,25.10
2017-07-22T06:46:32.917Z,25.12
2017-07-22T06:49:00.466Z,25.10
2017-07-22T06:51:28.003Z,25.12
2017-07-22T06:53:55.637Z,25.13
2017-07-22T06:56:23.159Z,25.08
2017-07-22T06:58:50.708Z,25.10
2017-07-22T07:01:18.315Z,25.04
2017-07-22T07:03:45.868Z,25.07
2017-07-22T07:06:13.393Z,25.11
2017-07-22T07:08:40.996Z,25.15
2017-07-22T07:11:08.509Z,25.16
2017-07-22T07:13:36.062Z,25.19
2017-07-22T07:16:03.676Z,25.05
2017-07-22T07:18:31.243Z,25.02
2017-07-22T07:20:58.760Z,25.06
2017-07-22T07:23:26.272Z,25.10
2017-07-22T07:25:53.880Z,25.11
2017-07-22T07:28:21.396Z,25.15
2017-07-22T07:30:48.938Z,25.17
2017-07-22T07:33:16.552Z,25.20
2017-07-22T07:35:44.101Z,25.19
2017-07-22T07:38:11.623Z,25.16
2017-07-22T07:40:39.255Z,25.14
2017-07-22T07:43:06.815Z,25.14
2017-07-22T07:45:34.381Z,25.20
2017-07-22T07:48:01.897Z,25.22
2017-07-22T07:50:29.449Z,25.23
2017-07-22T07:52:56.969Z,25.25
2017-07-22T07:55:24.515Z,25.25
2017-07-22T07:57:52.034Z,25.26
2017-07-22T08:00:19.580Z,25.27
2017-07-22T08:02:47.099Z,25.27
2017-07-22T08:05:14.648Z,25.26
2017-07-22T08:07:42.156Z,25.26
2017-07-22T08:10:09.673Z,25.26
2017-07-22T08:12:37.216Z,25.32
2017-07-22T08:15:04.731Z,25.35
2017-07-22T08:17:32.275Z,25.36
2017-07-22T08:19:59.794Z,25.36
2017-07-22T08:22:27.350Z,25.38
2017-07-22T08:24:54.871Z,25.37
2017-07-22T08:27:22.425Z,25.37
2017-07-22T08:29:49.939Z,25.40
2017-07-22T08:32:17.487Z,25.41
2017-07-22T08:34:45.006Z,25.42
2017-07-22T08:37:12.550Z,25.41
2017-07-22T08:39:40.067Z,25.42
2017-07-22T08:42:07.615Z,25.43
2017-07-22T08:44:35.133Z,25.44
2017-07-22T08:47:02.692Z,25.46
2017-07-22T08:49:30.208Z,25.46
2017-07-22T08:51:57.761Z,25.47
2017-07-22T08:54:25.272Z,25.48
2017-07-22T08:56:52.821Z,25.50
2017-07-22T08:59:20.343Z,25.52
2017-07-22T09:01:47.866Z,25.52
2017-07-22T09:04:15.416Z,25.54
2017-07-22T09:06:42.930Z,25.54
2017-07-22T09:09:10.487Z,25.54
2017-07-22T09:11:38.008Z,25.58
2017-07-22T09:14:05.572Z,25.58
2017-07-22T09:16:33.087Z,25.59
2017-07-22T09:19:00.642Z,25.60
2017-07-22T09:21:29.123Z,25.61
2017-07-22T09:23:56.778Z,25.64
2017-07-22T09:26:24.306Z,25.64
2017-07-22T09:28:51.854Z,25.65
2017-07-22T09:31:19.372Z,25.69
2017-07-22T09:33:47.055Z,25.73
2017-07-22T09:36:14.569Z,25.75
2017-07-22T09:38:42.116Z,25.78
2017-07-22T09:41:09.640Z,25.81
2017-07-22T09:43:37.198Z,25.79
2017-07-22T09:46:04.724Z,25.77
2017-07-22T09:48:32.257Z,25.75
2017-07-22T09:50:59.928Z,25.76
2017-07-22T09:53:27.491Z,25.78
2017-07-22T09:55:55.033Z,25.80
2017-07-22T09:58:22.587Z,25.80
2017-07-22T10:00:50.132Z,25.81
2017-07-22T10:03:17.657Z,25.83
2017-07-22T10:05:45.205Z,25.84
2017-07-22T10:08:12.721Z,25.85
2017-07-22T10:10:40.267Z,25.86
2017-07-22T10:13:07.786Z,25.87
2017-07-22T10:15:35.336Z,25.87
2017-07-22T10:18:02.990Z,25.88
2017-07-22T10:20:30.536Z,25.88
2017-07-22T10:22:58.133Z,25.90
2017-07-22T10:25:25.777Z,25.90
2017-07-22T10:27:53.306Z,25.91
2017-07-22T10:30:20.849Z,25.92
2017-07-22T10:32:48.386Z,25.93
2017-07-22T10:35:15.949Z,25.93
2017-07-22T10:37:43.541Z,25.94
2017-07-22T10:40:11.066Z,25.95
2017-07-22T10:42:38.606Z,25.95
2017-07-22T10:45:06.166Z,25.95
2017-07-22T10:47:33.714Z,25.95
2017-07-22T10:50:01.235Z,25.96
2017-07-22T10:52:28.885Z,25.97
2017-07-22T10:54:56.474Z,25.97
2017-07-22T10:57:24.014Z,25.98
2017-07-22T10:59:51.533Z,25.98
2017-07-22T11:02:19.076Z,25.99
2017-07-22T11:04:46.626Z,25.99
2017-07-22T11:07:14.187Z,25.99
2017-07-22T11:09:41.702Z,26.00
2017-07-22T11:12:09.390Z,26.01
2017-07-22T11:14:36.921Z,26.01
2017-07-22T11:17:04.482Z,26.01
2017-07-22T11:19:32.040Z,26.02
2017-07-22T11:21:59.622Z,26.03
2017-07-22T11:24:27.137Z,26.03
2017-07-22T11:26:54.691Z,26.04
2017-07-22T11:29:22.293Z,26.04
2017-07-22T11:31:49.827Z,26.05
2017-07-22T11:34:17.465Z,26.07
2017-07-22T11:36:46.539Z,26.10
2017-07-22T11:39:14.209Z,26.14
2017-07-22T11:41:42.949Z,26.18
2017-07-22T11:44:10.778Z,26.21
2017-07-22T11:46:39.111Z,26.24
2017-07-22T11:49:08.485Z,26.28
2017-07-22T11:51:36.960Z,26.29
2017-07-22T11:54:05.041Z,26.28
2017-07-22T11:56:33.168Z,26.27
2017-07-22T11:59:01.909Z,26.27
2017-07-22T12:01:30.239Z,26.30
2017-07-22T12:03:59.026Z,26.32
2017-07-22T12:06:27.623Z,26.33
2017-07-22T12:08:56.193Z,26.34
2017-07-22T12:11:24.310Z,26.35
2017-07-22T12:13:52.602Z,26.36
2017-07-22T12:16:21.080Z,26.39
2017-07-22T12:18:48.693Z,26.39
2017-07-22T12:21:16.225Z,26.41
2017-07-22T12:23:43.789Z,26.43
2017-07-22T12:26:11.309Z,26.43
2017-07-22T12:28:38.921Z,26.44
2017-07-22T12:31:06.599Z,26.46
2017-07-22T12:33:34.115Z,26.46
2017-07-22T12:36:02.866Z,26.51
2017-07-22T12:38:30.899Z,26.54
2017-07-22T12:40:58.978Z,26.56
2017-07-22T12:43:27.510Z,26.58
2017-07-22T12:45:55.701Z,26.57
2017-07-22T12:48:23.635Z,26.56
2017-07-22T12:50:52.427Z,26.55
2017-07-22T12:53:20.090Z,26.54
2017-07-22T12:55:48.640Z,26.58
2017-07-22T12:58:16.397Z,26.67
2017-07-22T13:00:45.179Z,26.65
2017-07-22T13:03:13.489Z,26.64
2017-07-22T13:05:41.572Z,26.66
2017-07-22T13:08:09.877Z,26.65
2017-07-22T13:10:38.532Z,26.67
2017-07-22T13:13:06.709Z,26.68
2017-07-22T13:15:34.642Z,26.70
2017-07-22T13:18:02.627Z,26.72
2017-07-22T13:20:30.274Z,26.71
2017-07-22T13:22:58.926Z,26.70
2017-07-22T13:25:27.853Z,26.70
2017-07-22T13:27:55.527Z,26.70
2017-07-22T13:30:23.042Z,26.72
2017-07-22T13:32:50.599Z,26.75
2017-07-22T13:35:18.120Z,26.76
2017-07-22T13:37:45.790Z,26.77
2017-07-22T13:40:13.306Z,26.75
2017-07-22T13:42:40.852Z,26.75
2017-07-22T13:45:08.394Z,26.74
2017-07-22T13:47:35.949Z,26.74
2017-07-22T13:50:03.469Z,26.74
2017-07-22T13:52:31.122Z,26.75
2017-07-22T13:54:58.713Z,26.75
2017-07-22T13:57:26.262Z,26.74
2017-07-22T13:59:53.830Z,26.76
2017-07-22T14:02:21.387Z,26.77
2017-07-22T14:04:48.899Z,26.77
2017-07-22T14:07:16.413Z,26.79
2017-07-22T14:09:43.957Z,26.81
2017-07-22T14:12:11.473Z,26.82
2017-07-22T14:14:39.030Z,26.84
2017-07-22T14:17:06.539Z,26.84
2017-07-22T14:19:34.187Z,26.86
2017-07-22T14:22:01.698Z,26.87
2017-07-22T14:24:29.249Z,26.90
2017-07-22T14:26:56.771Z,26.91
2017-07-22T14:29:24.324Z,26.89
2017-07-22T14:31:51.840Z,26.89
2017-07-22T14:34:19.381Z,26.90
2017-07-22T14:36:46.901Z,26.90
2017-07-22T14:39:14.447Z,26.90
2017-07-22T14:41:41.974Z,26.90
2017-07-22T14:44:09.524Z,26.91
2017-07-22T14:46:37.080Z,26.91
2017-07-22T14:49:04.654Z,26.93
2017-07-22T14:51:32.168Z,26.93
2017-07-22T14:54:00.028Z,26.92
2017-07-22T14:56:27.582Z,26.94
2017-07-22T14:58:55.098Z,26.98
2017-07-22T15:01:22.697Z,27.00
2017-07-22T15:03:50.221Z,27.03
2017-07-22T15:06:17.771Z,27.05
2017-07-22T15:08:45.298Z,27.05
2017-07-22T15:11:13.144Z,27.06
2017-07-22T15:13:40.701Z,27.07
2017-07-22T15:16:08.349Z,27.07
2017-07-22T15:18:37.316Z,27.07
2017-07-22T15:21:05.226Z,27.08
2017-07-22T15:23:32.871Z,27.09
2017-07-22T15:26:01.055Z,27.10
2017-07-22T15:28:29.236Z,27.12
2017-07-22T15:30:57.616Z,27.12
2017-07-22T15:33:25.501Z,27.15
2017-07-22T15:35:53.144Z,27.14
2017-07-22T15:38:21.024Z,27.16
2017-07-22T15:40:49.037Z,27.19
2017-07-22T15:43:17.360Z,27.19
2017-07-22T15:45:45.841Z,27.20
2017-07-22T15:48:13.707Z,27.22
2017-07-22T15:50:41.860Z,27.23
2017-07-22T15:53:09.546Z,27.22
2017-07-22T15:55:37.383Z,27.24
2017-07-22T15:58:06.342Z,27.26
2017-07-22T16:00:33.948Z,27.24
2017-07-22T16:03:02.921Z,27.27
2017-07-22T16:05:31.435Z,27.27
2017-07-22T16:07:59.121Z,27.30
2017-07-22T16:10:27.079Z,27.28
2017-07-22T16:12:54.949Z,27.31
2017-07-22T16:15:22.479Z,27.31
2017-07-22T16:17:50.066Z,27.34
2017-07-22T16:20:17.585Z,27.37
2017-07-22T16:22:45.137Z,27.31
2017-07-22T16:25:12.647Z,27.27
2017-07-22T16:27:40.171Z,27.27
2017-07-22T16:30:07.722Z,27.24
2017-07-22T16:32:35.235Z,27.26
2017-07-22T16:35:02.784Z,27.27
2017-07-22T16:37:30.301Z,27.25
2017-07-22T16:39:57.850Z,27.26
2017-07-22T16:42:25.374Z,27.26
2017-07-22T16:44:52.931Z,27.24
2017-07-22T16:47:20.453Z,27.26
2017-07-22T16:49:48.046Z,27.30
2017-07-22T16:52:15.569Z,27.32
2017-07-22T16:54:44.148Z,27.35
2017-07-22T16:57:12.254Z,27.37
2017-07-22T16:59:39.838Z,27.38
2017-07-22T17:02:07.355Z,27.34
2017-07-22T17:04:34.933Z,27.33
2017-07-22T17:07:02.454Z,27.32
2017-07-22T17:09:30.005Z,27.32
2017-07-22T17:11:57.529Z,27.32
2017-07-22T17:14:25.092Z,27.32
2017-07-22T17:16:52.609Z,27.31
2017-07-22T17:19:20.129Z,27.31
2017-07-22T17:21:47.674Z,27.32
2017-07-22T17:24:15.183Z,27.32
2017-07-22T17:26:42.746Z,27.31
2017-07-22T17:29:10.258Z,27.31
2017-07-22T17:31:37.823Z,27.31
2017-07-22T17:34:05.390Z,27.31
2017-07-22T17:36:32.915Z,27.31
2017-07-22T17:39:00.480Z,27.31
2017-07-22T17:41:27.998Z,27.31
2017-07-22T17:43:55.555Z,27.31
2017-07-22T17:46:23.376Z,27.30
2017-07-22T17:48:50.932Z,27.31
2017-07-22T17:51:18.451Z,27.31
2017-07-22T17:53:45.998Z,27.31
2017-07-22T17:56:13.512Z,27.31
2017-07-22T17:58:41.055Z,27.31
2017-07-22T18:01:08.583Z,27.30
2017-07-22T18:03:36.140Z,27.32
2017-07-22T18:06:03.657Z,27.32
2017-07-22T18:08:31.209Z,27.32
2017-07-22T18:10:58.722Z,27.32
2017-07-22T18:13:26.243Z,27.32
2017-07-22T18:15:53.796Z,27.33
2017-07-22T18:18:21.318Z,27.33
2017-07-22T18:20:48.859Z,27.33
2017-07-22T18:23:16.377Z,27.34
2017-07-22T18:25:43.928Z,27.34
2017-07-22T18:28:11.440Z,27.34
2017-07-22T18:30:38.995Z,27.34
2017-07-22T18:33:06.507Z,27.34
2017-07-22T18:35:34.045Z,27.34
2017-07-22T18:38:01.561Z,27.35
2017-07-22T18:40:29.105Z,27.35
2017-07-22T18:42:56.633Z,27.35
2017-07-22T18:45:24.195Z,27.35
2017-07-22T18:47:51.709Z,27.35
2017-07-22T18:50:19.262Z,27.34
2017-07-22T18:52:46.781Z,27.36
2017-07-22T18:55:14.329Z,27.35
2017-07-22T18:57:41.878Z,27.36
2017-07-22T19:00:09.394Z,27.35
2017-07-22T19:02:36.951Z,27.36
2017-07-22T19:05:04.464Z,27.36
2017-07-22T19:07:32.025Z,27.36
2017-07-22T19:09:59.546Z,27.36
2017-07-22T19:12:27.085Z,27.35
2017-07-22T19:14:54.602Z,27.36
2017-07-22T19:17:22.187Z,27.37
2017-07-22T19:19:49.702Z,27.36
2017-07-22T19:22:17.251Z,27.43
2017-07-22T19:24:44.816Z,27.46
2017-07-22T19:27:12.382Z,27.49
2017-07-22T19:29:39.910Z,27.47
2017-07-22T19:32:07.424Z,27.44
2017-07-22T19:34:35.238Z,27.42
2017-07-22T19:37:02.748Z,27.39
2017-07-22T19:39:30.296Z,27.38
2017-07-22T19:41:57.895Z,27.28
2017-07-22T19:44:25.450Z,27.33
2017-07-22T19:46:52.968Z,27.27
2017-07-22T19:49:20.642Z,27.29
2017-07-22T19:51:48.186Z,27.28
2017-07-22T19:54:15.738Z,27.22
2017-07-22T19:56:43.269Z,27.12
2017-07-22T19:59:10.813Z,27.19
2017-07-22T20:01:38.334Z,27.23
2017-07-22T20:04:05.911Z,27.29
2017-07-22T20:06:33.453Z,27.34
2017-07-22T20:09:01.007Z,27.36
2017-07-22T20:11:28.543Z,27.37
2017-07-22T20:13:56.057Z,27.34
2017-07-22T20:16:23.618Z,27.29
2017-07-22T20:18:51.130Z,27.36
2017-07-22T20:21:18.686Z,27.44
2017-07-22T20:23:46.213Z,27.40
2017-07-22T20:26:13.839Z,27.30
2017-07-22T20:28:41.502Z,27.32
2017-07-22T20:31:09.053Z,27.30
2017-07-22T20:33:36.584Z,27.30
2017-07-22T20:36:04.137Z,27.28
2017-07-22T20:38:31.741Z,27.24
2017-07-22T20:40:59.299Z,27.14
2017-07-22T20:43:26.827Z,27.17
2017-07-22T20:45:54.377Z,27.20
2017-07-22T20:48:21.905Z,27.20
2017-07-22T20:50:49.447Z,27.23
2017-07-22T20:53:16.976Z,27.24
2017-07-22T20:55:44.528Z,27.22
2017-07-22T20:58:12.045Z,27.24
2017-07-22T21:00:39.564Z,27.24
2017-07-22T21:03:07.117Z,27.25
2017-07-22T21:05:34.636Z,27.24
2017-07-22T21:08:02.203Z,27.26
2017-07-22T21:10:29.722Z,27.24
2017-07-22T21:12:57.278Z,27.23
2017-07-22T21:15:24.803Z,27.24
2017-07-22T21:17:52.355Z,27.26
2017-07-22T21:20:19.875Z,27.24
2017-07-22T21:22:47.435Z,27.23
2017-07-22T21:25:15.052Z,27.15
2017-07-22T21:27:42.852Z,27.19
